Time;durP1;ratioP1;P1;durP2;ratioP2;P2;SDS_P1;SDS_P2;PMS_P1;PMS_P2;Temp;Humidity;BMP_temperature;BMP_pressure;BME280_temperature;BME280_humidity;BME280_pressure;Samples;Min_cycle;Max_cycle;Signal;HPM_P1;HPM_P2
2022/09/02 05:37:32;;;;;;;32.50;19.77;;;;;;;;;;4390090;32;20155;-72
2022/09/02 05:57:48;;;;;;;20.77;12.68;;;;;;;;;;4391482;32;20093;-71
2022/09/02 06:00:33;;;;;;;22.87;13.48;;;;;;;;;;4391361;32;20104;-70
2022/09/02 06:03:00;;;;;;;20.45;12.93;;;;;;;;;;4390809;32;20073;-71
2022/09/02 06:05:27;;;;;;;18.87;12.18;;;;;;;;;;4390998;32;20089;-71
2022/09/02 06:08:12;;;;;;;19.37;12.23;;;;;;;;;;4389286;32;20068;-71
2022/09/02 06:10:43;;;;;;;20.70;14.27;;;;;;;;;;4391809;32;20161;-71
2022/09/02 06:13:29;;;;;;;24.35;16.15;;;;;;;;;;4380575;32;20104;-71
2022/09/02 06:15:56;;;;;;;23.83;15.48;;;;;;;;;;4394004;32;20085;-73
2022/09/02 06:18:23;;;;;;;30.37;19.70;;;;;;;;;;4392518;32;20181;-71
2022/09/02 06:20:50;;;;;;;27.13;16.62;;;;;;;;;;4393650;32;20508;-71
2022/09/02 06:23:17;;;;;;;22.37;15.70;;;;;;;;;;4394071;32;20086;-72
2022/09/02 06:25:45;;;;;;;16.45;9.80;;;;;;;;;;4392182;32;20070;-71
2022/09/02 06:28:13;;;;;;;28.10;18.77;;;;;;;;;;4379673;32;20150;-71
2022/09/02 06:30:41;;;;;;;31.48;21.60;;;;;;;;;;4391982;32;20513;-71
2022/09/02 06:33:08;;;;;;;29.37;17.52;;;;;;;;;;4392125;32;20085;-72
2022/09/02 06:35:40;;;;;;;38.65;24.05;;;;;;;;;;4393539;32;20084;-71
2022/09/02 06:38:09;;;;;;;36.15;22.35;;;;;;;;;;4392141;32;20066;-70
2022/09/02 06:40:37;;;;;;;32.42;22.05;;;;;;;;;;4392149;32;20077;-70
2022/09/02 06:43:04;;;;;;;30.30;19.52;;;;;;;;;;4392172;32;20609;-71
2022/09/02 06:45:30;;;;;;;32.55;20.20;;;;;;;;;;4394057;32;20077;-71
2022/09/02 06:47:57;;;;;;;34.15;22.13;;;;;;;;;;4393293;32;20422;-70
2022/09/02 06:50:24;;;;;;;30.65;21.58;;;;;;;;;;4391898;32;20086;-69
2022/09/02 06:52:50;;;;;;;35.28;23.20;;;;;;;;;;4392230;32;20089;-70
2022/09/02 06:55:17;;;;;;;31.33;20.42;;;;;;;;;;4366778;32;20070;-70
2022/09/02 06:57:44;;;;;;;29.10;19.40;;;;;;;;;;4379254;32;20085;-71
2022/09/02 07:00:11;;;;;;;29.75;20.17;;;;;;;;;;4393315;32;20102;-70
2022/09/02 07:02:38;;;;;;;29.27;18.35;;;;;;;;;;4391930;32;20150;-71
2022/09/02 07:05:08;;;;;;;33.47;22.35;;;;;;;;;;4379060;32;20516;-70
2022/09/02 07:07:39;;;;;;;33.58;23.45;;;;;;;;;;4391713;32;20097;-70
2022/09/02 07:10:08;;;;;;;30.10;21.00;;;;;;;;;;4391455;32;20073;-70
2022/09/02 07:12:38;;;;;;;33.90;22.67;;;;;;;;;;4379278;32;20085;-69
2022/09/02 07:15:06;;;;;;;34.05;22.13;;;;;;;;;;4393169;32;20156;-70
2022/09/02 07:17:33;;;;;;;30.40;22.52;;;;;;;;;;4392717;32;20078;-70
2022/09/02 07:20:00;;;;;;;36.55;25.05;;;;;;;;;;4391445;32;20100;-69
2022/09/02 07:22:27;;;;;;;27.00;19.20;;;;;;;;;;4392076;32;20132;-70
2022/09/02 07:24:54;;;;;;;31.37;20.88;;;;;;;;;;4391361;32;20081;-71
2022/09/02 07:27:22;;;;;;;33.35;22.90;;;;;;;;;;4379834;32;20081;-70
2022/09/02 07:29:49;;;;;;;34.38;21.37;;;;;;;;;;4383626;32;20178;-71
2022/09/02 07:32:16;;;;;;;33.47;24.15;;;;;;;;;;4366920;32;20148;-71
2022/09/02 07:34:43;;;;;;;29.73;22.42;;;;;;;;;;4391270;32;20154;-70
2022/09/02 07:37:10;;;;;;;28.50;19.70;;;;;;;;;;4366558;32;20163;-72
2022/09/02 07:39:36;;;;;;;33.15;21.50;;;;;;;;;;4366413;32;20068;-72
2022/09/02 07:42:03;;;;;;;32.67;24.60;;;;;;;;;;4366477;32;20092;-72
2022/09/02 07:44:31;;;;;;;30.08;18.40;;;;;;;;;;4390965;32;20311;-71
2022/09/02 07:46:57;;;;;;;29.50;21.25;;;;;;;;;;4392489;32;20171;-72
2022/09/02 07:49:25;;;;;;;32.38;23.83;;;;;;;;;;4390932;32;20197;-72
2022/09/02 07:51:52;;;;;;;31.50;23.35;;;;;;;;;;4390978;32;20082;-72
2022/09/02 07:54:21;;;;;;;30.70;20.77;;;;;;;;;;4392672;32;20084;-72
2022/09/02 07:56:48;;;;;;;31.60;22.48;;;;;;;;;;4391039;32;20081;-71
2022/09/02 07:59:15;;;;;;;31.75;21.55;;;;;;;;;;4392180;32;20078;-70
2022/09/02 08:01:42;;;;;;;31.52;20.67;;;;;;;;;;4378235;32;20070;-70
2022/09/02 08:04:09;;;;;;;33.58;23.40;;;;;;;;;;4366104;32;20066;-71
2022/09/02 08:06:36;;;;;;;29.80;19.70;;;;;;;;;;4378262;32;20086;-70
2022/09/02 08:09:11;;;;;;;29.73;20.42;;;;;;;;;;4378396;32;20497;-71
2022/09/02 08:11:43;;;;;;;28.10;17.23;;;;;;;;;;4391523;32;20158;-72
2022/09/02 08:14:13;;;;;;;33.08;21.20;;;;;;;;;;4378101;32;20093;-71
2022/09/02 08:16:40;;;;;;;23.52;17.27;;;;;;;;;;4390701;32;20158;-71
2022/09/02 08:19:08;;;;;;;26.17;17.95;;;;;;;;;;4365738;32;20078;-72
2022/09/02 08:21:35;;;;;;;28.52;18.83;;;;;;;;;;4365572;32;20085;-71
2022/09/02 08:24:02;;;;;;;25.50;17.92;;;;;;;;;;4392110;32;20250;-71
2022/09/02 08:26:29;;;;;;;25.02;16.75;;;;;;;;;;4377973;32;20081;-73
2022/09/02 08:28:56;;;;;;;22.73;15.52;;;;;;;;;;4390288;32;20066;-72
2022/09/02 08:31:23;;;;;;;22.60;15.60;;;;;;;;;;4390231;32;20081;-72
2022/09/02 08:33:49;;;;;;;30.10;19.98;;;;;;;;;;4391476;32;20113;-72
2022/09/02 08:36:16;;;;;;;28.17;20.30;;;;;;;;;;4391746;32;20155;-73
2022/09/02 08:38:43;;;;;;;24.60;17.60;;;;;;;;;;4390273;32;20073;-72
2022/09/02 08:41:29;;;;;;;26.85;19.65;;;;;;;;;;4390276;32;20082;-72
2022/09/02 08:43:58;;;;;;;25.60;20.40;;;;;;;;;;4390080;32;20161;-71
2022/09/02 08:46:27;;;;;;;25.15;17.67;;;;;;;;;;4390182;32;20513;-72
2022/09/02 08:49:26;;;;;;;24.70;16.52;;;;;;;;;;4377523;32;20176;-72
2022/09/02 08:51:56;;;;;;;23.33;16.98;;;;;;;;;;4390037;32;20089;-72
2022/09/02 08:54:36;;;;;;;27.00;17.25;;;;;;;;;;4390567;32;20082;-71
2022/09/02 08:57:03;;;;;;;23.15;16.12;;;;;;;;;;4390261;32;20077;-71
2022/09/02 08:59:31;;;;;;;24.63;17.02;;;;;;;;;;4390324;32;20496;-71
2022/09/02 09:02:13;;;;;;;23.33;15.93;;;;;;;;;;4390196;32;20089;-72
2022/09/02 09:04:56;;;;;;;23.83;17.30;;;;;;;;;;4377266;32;20148;-72
2022/09/02 09:07:37;;;;;;;23.12;16.98;;;;;;;;;;4389712;32;20072;-71
2022/09/02 09:10:12;;;;;;;26.55;19.83;;;;;;;;;;4391335;32;20082;-71
2022/09/02 09:12:49;;;;;;;25.92;18.50;;;;;;;;;;4390985;32;20161;-71
2022/09/02 09:15:41;;;;;;;28.62;20.12;;;;;;;;;;4389725;32;20535;-71
2022/09/02 09:18:12;;;;;;;28.60;20.77;;;;;;;;;;4365122;32;20074;-72
2022/09/02 09:20:40;;;;;;;31.48;23.33;;;;;;;;;;4377153;32;20516;-71
2022/09/02 09:23:18;;;;;;;32.03;22.27;;;;;;;;;;4377379;32;20520;-71
2022/09/02 09:25:48;;;;;;;30.50;20.52;;;;;;;;;;4391033;32;20136;-72
2022/09/02 09:28:15;;;;;;;30.37;19.98;;;;;;;;;;4389174;32;20538;-71
2022/09/02 09:30:41;;;;;;;29.37;18.37;;;;;;;;;;4390962;32;20526;-72
2022/09/02 09:33:14;;;;;;;25.30;17.90;;;;;;;;;;4389589;32;20085;-71
2022/09/02 09:35:52;;;;;;;20.80;15.20;;;;;;;;;;4389664;32;20172;-71
2022/09/02 09:38:30;;;;;;;24.08;16.10;;;;;;;;;;4389517;32;20077;-71
2022/09/02 09:41:22;;;;;;;19.37;16.02;;;;;;;;;;4377551;32;20061;-74
2022/09/02 09:43:49;;;;;;;22.13;15.80;;;;;;;;;;4377135;32;20513;-71
2022/09/02 09:46:31;;;;;;;23.65;17.02;;;;;;;;;;4393791;32;20097;-72
2022/09/02 09:48:58;;;;;;;23.80;16.92;;;;;;;;;;4367956;32;20081;-71
2022/09/02 09:51:25;;;;;;;22.77;16.48;;;;;;;;;;4392660;32;20081;-71
2022/09/02 09:53:52;;;;;;;22.25;16.17;;;;;;;;;;4394317;32;20165;-72
2022/09/02 09:56:25;;;;;;;24.85;18.40;;;;;;;;;;4392826;32;20086;-73
2022/09/02 09:58:52;;;;;;;24.92;19.65;;;;;;;;;;4394113;32;20161;-72
2022/09/02 10:01:29;;;;;;;26.33;19.33;;;;;;;;;;4392580;32;20156;-71
2022/09/02 10:04:10;;;;;;;23.20;17.98;;;;;;;;;;4392865;32;20070;-71
2022/09/02 10:06:38;;;;;;;25.85;19.08;;;;;;;;;;4381855;32;20075;-72
2022/09/02 10:09:13;;;;;;;26.85;19.00;;;;;;;;;;4386641;32;20146;-72
2022/09/02 10:11:55;;;;;;;28.17;20.05;;;;;;;;;;4397568;32;20092;-71
2022/09/02 10:14:22;;;;;;;28.80;20.65;;;;;;;;;;4381185;32;20062;-71
2022/09/02 10:17:07;;;;;;;27.62;21.45;;;;;;;;;;4394224;32;20509;-72
2022/09/02 10:19:53;;;;;;;27.45;19.52;;;;;;;;;;4394381;32;20161;-71
2022/09/02 10:22:31;;;;;;;31.45;21.35;;;;;;;;;;4392745;32;20070;-71
2022/09/02 10:24:58;;;;;;;32.10;22.05;;;;;;;;;;4392528;32;20069;-72
2022/09/02 10:27:43;;;;;;;30.40;19.75;;;;;;;;;;4393642;32;20144;-71
2022/09/02 10:30:24;;;;;;;25.73;19.65;;;;;;;;;;4393577;32;20073;-72
2022/09/02 10:33:15;;;;;;;29.05;20.75;;;;;;;;;;4392046;32;20248;-72
2022/09/02 10:35:58;;;;;;;31.23;23.12;;;;;;;;;;4379619;32;20074;-71
2022/09/02 10:38:34;;;;;;;31.08;23.30;;;;;;;;;;4379769;32;20165;-71
2022/09/02 10:41:13;;;;;;;;;;;;;;;;;;4392542;32;20074;-72
2022/09/02 10:44:03;;;;;;;27.05;20.42;;;;;;;;;;4393676;32;19969;-71
2022/09/02 10:46:53;;;;;;;33.50;23.58;;;;;;;;;;4392141;32;20078;-72
2022/09/02 10:49:44;;;;;;;25.83;19.70;;;;;;;;;;4391857;32;20074;-72
2022/09/02 10:52:17;;;;;;;27.92;22.83;;;;;;;;;;4380196;32;20078;-71
2022/09/02 10:54:43;;;;;;;29.15;21.37;;;;;;;;;;4393259;32;20160;-72
2022/09/02 10:57:17;;;;;;;26.52;21.15;;;;;;;;;;4393278;32;20090;-72
2022/09/02 10:59:49;;;;;;;29.37;22.08;;;;;;;;;;4391751;32;20136;-72
2022/09/02 11:02:15;;;;;;;31.02;21.50;;;;;;;;;;4392840;32;20604;-71
2022/09/02 11:05:14;;;;;;;31.70;23.00;;;;;;;;;;4391840;32;20077;-71
2022/09/02 11:07:48;;;;;;;32.55;23.92;;;;;;;;;;4403795;32;20072;-71
2022/09/02 11:10:34;;;;;;;29.45;20.45;;;;;;;;;;4391752;32;20235;-72
2022/09/02 11:13:20;;;;;;;26.27;21.33;;;;;;;;;;4391759;32;20138;-72
2022/09/02 11:16:04;;;;;;;25.70;19.60;;;;;;;;;;4379317;32;20080;-71
2022/09/02 11:18:43;;;;;;;23.52;17.83;;;;;;;;;;4392898;32;20565;-73
2022/09/02 11:21:25;;;;;;;23.65;18.55;;;;;;;;;;4391537;32;20077;-71
2022/09/02 11:24:25;;;;;;;26.85;19.60;;;;;;;;;;4393309;32;20105;-71
2022/09/02 11:27:28;;;;;;;28.95;18.95;;;;;;;;;;4379491;32;20145;-72
2022/09/02 11:30:22;;;;;;;27.40;18.55;;;;;;;;;;4391536;32;20069;-72
2022/09/02 11:32:52;;;;;;;22.62;18.15;;;;;;;;;;4388967;32;20081;-73
2022/09/02 11:35:27;;;;;;;23.15;16.33;;;;;;;;;;4391493;32;20080;-71
2022/09/02 11:38:00;;;;;;;22.15;17.55;;;;;;;;;;4379733;32;20520;-72
2022/09/02 11:40:31;;;;;;;23.52;17.55;;;;;;;;;;4378721;32;20085;-71
2022/09/02 11:43:19;;;;;;;21.20;16.15;;;;;;;;;;4391282;32;20081;-71
2022/09/02 11:46:24;;;;;;;19.25;14.55;;;;;;;;;;4391175;32;20549;-71
2022/09/02 11:49:28;;;;;;;23.62;17.62;;;;;;;;;;4378451;32;20162;-72
2022/09/02 11:52:25;;;;;;;23.40;16.25;;;;;;;;;;4378689;32;20081;-71
2022/09/02 11:55:15;;;;;;;;;;;;;;;;;;4392830;32;20089;-71
2022/09/02 11:57:42;;;;;;;23.52;16.55;;;;;;;;;;4378520;32;20367;-71
2022/09/02 12:00:23;;;;;;;19.73;16.87;;;;;;;;;;4390966;32;20089;-72
2022/09/02 12:03:03;;;;;;;22.40;16.52;;;;;;;;;;4390839;32;20100;-72
2022/09/02 12:05:30;;;;;;;22.45;16.25;;;;;;;;;;4392186;32;20507;-71
2022/09/02 12:08:05;;;;;;;20.75;15.13;;;;;;;;;;4390399;32;20154;-73
2022/09/02 12:10:41;;;;;;;20.37;14.65;;;;;;;;;;4391294;32;20077;-72
2022/09/02 12:13:08;;;;;;;;;;;;;;;;;;4392827;32;20070;-71
2022/09/02 12:15:35;;;;;;;19.70;15.10;;;;;;;;;;4378089;32;19975;-73
2022/09/02 12:18:29;;;;;;;19.35;14.55;;;;;;;;;;4390593;32;20085;-72
2022/09/02 12:20:59;;;;;;;22.87;14.55;;;;;;;;;;4371665;32;20613;-71
2022/09/02 12:23:53;;;;;;;19.15;14.25;;;;;;;;;;4390751;32;20142;-71
2022/09/02 12:26:23;;;;;;;21.60;14.02;;;;;;;;;;4390799;32;20062;-71
2022/09/02 12:28:51;;;;;;;22.25;15.65;;;;;;;;;;4390655;32;20158;-72
2022/09/02 12:31:42;;;;;;;19.02;15.27;;;;;;;;;;4390659;32;20226;-72
2022/09/02 12:34:23;;;;;;;19.83;14.70;;;;;;;;;;4390570;32;20080;-71
2022/09/02 12:37:01;;;;;;;19.83;14.68;;;;;;;;;;4391630;32;20081;-72
2022/09/02 12:39:30;;;;;;;18.87;14.75;;;;;;;;;;4390300;32;20072;-71
2022/09/02 12:42:02;;;;;;;20.08;14.55;;;;;;;;;;4391666;32;20166;-72
2022/09/02 12:44:53;;;;;;;19.23;13.45;;;;;;;;;;4377894;32;20182;-73
2022/09/02 12:47:45;;;;;;;19.02;13.75;;;;;;;;;;4391992;32;20456;-68
2022/09/02 12:50:44;;;;;;;19.05;14.07;;;;;;;;;;4391780;32;20078;-72
2022/09/02 12:53:21;;;;;;;20.35;14.75;;;;;;;;;;4391611;32;20137;-73
2022/09/02 12:56:20;;;;;;;18.35;13.82;;;;;;;;;;4390582;32;20169;-71
2022/09/02 12:58:52;;;;;;;18.45;14.27;;;;;;;;;;4390248;32;20129;-72
2022/09/02 13:01:28;;;;;;;18.37;14.32;;;;;;;;;;4377612;32;20164;-71
2022/09/02 13:04:16;;;;;;;16.98;12.57;;;;;;;;;;4390241;32;20085;-71
2022/09/02 13:07:20;;;;;;;16.98;13.43;;;;;;;;;;4390059;32;20504;-70
2022/09/02 13:10:13;;;;;;;17.58;13.20;;;;;;;;;;4391348;32;20069;-71
2022/09/02 13:13:02;;;;;;;17.27;12.32;;;;;;;;;;4389881;32;20080;-71
2022/09/02 13:16:01;;;;;;;18.33;12.15;;;;;;;;;;4390342;32;20090;-69
2022/09/02 13:18:42;;;;;;;18.75;12.80;;;;;;;;;;4385343;32;20074;-70
2022/09/02 13:21:27;;;;;;;16.60;12.27;;;;;;;;;;4389589;32;20487;-69
2022/09/02 13:24:01;;;;;;;14.32;11.60;;;;;;;;;;4391375;32;20107;-69
2022/09/02 13:27:11;;;;;;;16.12;12.10;;;;;;;;;;4389968;32;20078;-70
2022/09/02 13:30:05;;;;;;;16.85;12.60;;;;;;;;;;4379280;32;20093;-69
2022/09/02 13:32:33;;;;;;;19.37;11.93;;;;;;;;;;4390077;32;20175;-70
2022/09/02 13:35:04;;;;;;;19.58;12.35;;;;;;;;;;4389625;32;20065;-68
2022/09/02 13:37:39;;;;;;;16.25;12.48;;;;;;;;;;4377577;32;20519;-69
2022/09/02 13:40:32;;;;;;;18.10;12.73;;;;;;;;;;4377501;32;20532;-70
2022/09/02 13:43:04;;;;;;;24.42;12.50;;;;;;;;;;4390045;32;20101;-72
2022/09/02 13:45:34;;;;;;;17.20;13.20;;;;;;;;;;4389862;32;20105;-69
2022/09/02 13:48:10;;;;;;;17.33;11.95;;;;;;;;;;4389320;32;20066;-70
2022/09/02 13:50:40;;;;;;;15.55;12.48;;;;;;;;;;4377078;32;20497;-68
2022/09/02 13:53:08;;;;;;;16.73;12.23;;;;;;;;;;4390300;32;20078;-68
2022/09/02 13:55:35;;;;;;;17.75;12.02;;;;;;;;;;4389601;32;20154;-69
2022/09/02 13:58:04;;;;;;;15.70;12.35;;;;;;;;;;4377422;32;20108;-69
2022/09/02 14:00:38;;;;;;;16.12;11.15;;;;;;;;;;4377388;32;20080;-70
2022/09/02 14:03:08;;;;;;;14.90;11.40;;;;;;;;;;4364568;32;20094;-72
2022/09/02 14:05:36;;;;;;;18.25;11.43;;;;;;;;;;4389390;32;20069;-69
2022/09/02 14:08:07;;;;;;;16.87;11.23;;;;;;;;;;4389254;32;20149;-68
2022/09/02 14:10:35;;;;;;;15.25;11.25;;;;;;;;;;4389961;32;20081;-69
2022/09/02 14:13:03;;;;;;;15.50;10.15;;;;;;;;;;4389309;32;20086;-69
2022/09/02 14:15:31;;;;;;;13.60;10.30;;;;;;;;;;4389308;32;20093;-70
2022/09/02 14:18:18;;;;;;;16.35;10.63;;;;;;;;;;4376960;32;20500;-69
2022/09/02 14:20:57;;;;;;;13.52;9.70;;;;;;;;;;4376724;32;20081;-70
2022/09/02 14:23:25;;;;;;;11.93;8.93;;;;;;;;;;4389395;32;20544;-68
2022/09/02 14:26:00;;;;;;;11.77;9.02;;;;;;;;;;4389303;32;20073;-68
2022/09/02 14:28:32;;;;;;;13.13;8.68;;;;;;;;;;4389105;32;20069;-68
2022/09/02 14:31:04;;;;;;;12.05;8.73;;;;;;;;;;4390716;32;20082;-70
2022/09/02 14:33:44;;;;;;;11.85;9.13;;;;;;;;;;4393648;32;20093;-68
2022/09/02 14:36:16;;;;;;;12.48;9.30;;;;;;;;;;4391908;32;20440;-66
2022/09/02 14:38:46;;;;;;;12.75;8.93;;;;;;;;;;4392085;32;20093;-68
2022/09/02 14:41:15;;;;;;;11.02;8.48;;;;;;;;;;4393465;32;20086;-67
2022/09/02 14:43:48;;;;;;;11.73;8.77;;;;;;;;;;4393668;32;20074;-66
2022/09/02 14:46:37;;;;;;;11.60;8.23;;;;;;;;;;4392074;32;20085;-68
2022/09/02 14:49:07;;;;;;;13.43;8.50;;;;;;;;;;4391907;32;20512;-70
2022/09/02 14:51:46;;;;;;;14.70;8.73;;;;;;;;;;4391986;32;20538;-70
2022/09/02 14:54:43;;;;;;;14.05;6.95;;;;;;;;;;4391881;32;20070;-70
2022/09/02 14:57:19;;;;;;;;;;;;;;;;;;4392298;32;20085;-70
2022/09/02 14:59:46;;;;;;;12.85;8.38;;;;;;;;;;4393553;32;19965;-71
2022/09/02 15:02:25;;;;;;;12.05;8.40;;;;;;;;;;4391656;32;20169;-68
2022/09/02 15:04:56;;;;;;;10.55;7.57;;;;;;;;;;4393108;32;20457;-70
2022/09/02 15:07:23;;;;;;;13.15;8.60;;;;;;;;;;4391834;32;20164;-69
2022/09/02 15:09:51;;;;;;;10.75;8.10;;;;;;;;;;4391680;32;20073;-70
2022/09/02 15:12:23;;;;;;;12.65;8.35;;;;;;;;;;4379357;32;20519;-68
2022/09/02 15:14:53;;;;;;;11.32;7.87;;;;;;;;;;4393038;32;20089;-68
2022/09/02 15:17:20;;;;;;;11.70;7.78;;;;;;;;;;4392980;32;20170;-67
2022/09/02 15:19:47;;;;;;;11.85;7.82;;;;;;;;;;4391281;32;20073;-70
2022/09/02 15:22:14;;;;;;;11.90;7.93;;;;;;;;;;4391704;32;20065;-67
2022/09/02 15:24:42;;;;;;;9.70;7.57;;;;;;;;;;4391665;32;20084;-68
2022/09/02 15:27:09;;;;;;;10.23;7.32;;;;;;;;;;4391823;32;20078;-70
2022/09/02 15:29:36;;;;;;;11.15;7.68;;;;;;;;;;4395108;32;20069;-68
2022/09/02 15:32:03;;;;;;;10.82;7.37;;;;;;;;;;4395057;32;20105;-70
2022/09/02 15:34:31;;;;;;;11.10;7.85;;;;;;;;;;4391271;32;20090;-70
2022/09/02 15:36:58;;;;;;;9.77;7.60;;;;;;;;;;4391355;32;20089;-70
2022/09/02 15:39:25;;;;;;;10.73;7.20;;;;;;;;;;4391211;32;20066;-70
2022/09/02 15:41:54;;;;;;;12.55;8.13;;;;;;;;;;4390775;32;20179;-68
2022/09/02 15:44:28;;;;;;;10.50;7.37;;;;;;;;;;4391380;32;20077;-69
2022/09/02 15:46:54;;;;;;;9.90;7.10;;;;;;;;;;4391119;32;20077;-70
2022/09/02 15:49:25;;;;;;;10.40;7.20;;;;;;;;;;4378883;32;20086;-69
2022/09/02 15:51:51;;;;;;;11.52;7.55;;;;;;;;;;4391471;32;20092;-69
2022/09/02 15:54:20;;;;;;;12.00;7.03;;;;;;;;;;4391036;32;20178;-68
2022/09/02 15:56:47;;;;;;;11.38;7.65;;;;;;;;;;4390999;32;20576;-69
2022/09/02 15:59:17;;;;;;;11.02;6.62;;;;;;;;;;4391269;32;20149;-67
2022/09/02 16:01:45;;;;;;;12.30;7.55;;;;;;;;;;4391355;32;20556;-68
2022/09/02 16:04:12;;;;;;;10.80;7.40;;;;;;;;;;4390922;32;20092;-68
2022/09/02 16:06:41;;;;;;;11.95;7.28;;;;;;;;;;4390753;32;20182;-68
2022/09/02 16:09:10;;;;;;;8.70;6.28;;;;;;;;;;4378108;32;20540;-69
2022/09/02 16:11:38;;;;;;;9.43;5.72;;;;;;;;;;4378384;32;20086;-69
2022/09/02 16:14:05;;;;;;;7.40;5.10;;;;;;;;;;4391929;32;20074;-69
2022/09/02 16:16:34;;;;;;;9.15;5.00;;;;;;;;;;4392051;32;20076;-68
2022/09/02 16:19:02;;;;;;;7.12;4.70;;;;;;;;;;4391955;32;20090;-68
2022/09/02 16:21:28;;;;;;;7.85;4.97;;;;;;;;;;4390543;32;20089;-68
2022/09/02 16:23:55;;;;;;;8.18;4.72;;;;;;;;;;4377978;32;20139;-69
2022/09/02 16:26:24;;;;;;;6.60;3.90;;;;;;;;;;4390479;32;20085;-71
2022/09/02 16:28:52;;;;;;;6.80;4.28;;;;;;;;;;4391880;32;20073;-69
2022/09/02 16:31:20;;;;;;;7.68;3.87;;;;;;;;;;4390511;32;20078;-69
2022/09/02 16:34:14;;;;;;;5.28;3.65;;;;;;;;;;4390369;32;20163;-68
2022/09/02 16:36:43;;;;;;;7.78;4.10;;;;;;;;;;4402602;32;20069;-69
2022/09/02 16:39:11;;;;;;;8.45;4.28;;;;;;;;;;4377753;32;20186;-70
2022/09/02 16:41:49;;;;;;;8.80;4.10;;;;;;;;;;4390446;32;20549;-69
2022/09/02 16:44:17;;;;;;;9.88;4.57;;;;;;;;;;4390713;32;20078;-69
2022/09/02 16:46:45;;;;;;;12.98;5.68;;;;;;;;;;4390115;32;20520;-68
2022/09/02 16:49:17;;;;;;;12.48;5.12;;;;;;;;;;4377626;32;20153;-69
2022/09/02 16:51:45;;;;;;;11.63;4.70;;;;;;;;;;4390623;32;20066;-69
2022/09/02 16:54:12;;;;;;;10.35;4.72;;;;;;;;;;4389964;32;20188;-68
2022/09/02 16:56:39;;;;;;;10.35;3.87;;;;;;;;;;4390176;32;20093;-68
2022/09/02 16:59:08;;;;;;;9.98;4.00;;;;;;;;;;4391480;32;20097;-69
2022/09/02 17:01:35;;;;;;;8.48;4.18;;;;;;;;;;4389900;32;20089;-69
2022/09/02 17:04:02;;;;;;;8.38;3.90;;;;;;;;;;4389848;32;20073;-69
2022/09/02 17:06:29;;;;;;;8.98;3.50;;;;;;;;;;4390405;32;20096;-68
2022/09/02 17:08:56;;;;;;;7.47;3.45;;;;;;;;;;4389825;32;20166;-69
2022/09/02 17:11:27;;;;;;;6.57;3.58;;;;;;;;;;4391296;32;20111;-68
2022/09/02 17:13:58;;;;;;;5.05;2.67;;;;;;;;;;4389902;32;20076;-68
2022/09/02 17:16:28;;;;;;;3.92;2.45;;;;;;;;;;4391178;32;20180;-69
2022/09/02 17:18:55;;;;;;;4.28;2.12;;;;;;;;;;4377432;32;20198;-69
2022/09/02 17:21:26;;;;;;;3.72;1.98;;;;;;;;;;4391193;32;20082;-69
2022/09/02 17:23:53;;;;;;;5.32;2.50;;;;;;;;;;4377640;32;20093;-68
2022/09/02 17:26:21;;;;;;;3.12;2.00;;;;;;;;;;4389851;32;20073;-69
2022/09/02 17:28:49;;;;;;;5.05;2.10;;;;;;;;;;4377766;32;20078;-69
2022/09/02 17:31:34;;;;;;;2.87;1.98;;;;;;;;;;4389728;32;20096;-68
2022/09/02 17:34:02;;;;;;;2.83;1.92;;;;;;;;;;4390333;32;20165;-69
2022/09/02 17:36:31;;;;;;;2.37;1.85;;;;;;;;;;4377331;32;20084;-68
2022/09/02 17:38:59;;;;;;;5.45;2.08;;;;;;;;;;4389751;32;20078;-69
2022/09/02 17:44:13;;;;;;;3.75;2.28;;;;;;;;;;4391300;32;20093;-69
2022/09/02 17:46:41;;;;;;;2.80;2.00;;;;;;;;;;4389543;32;20094;-68
2022/09/02 17:49:09;;;;;;;3.47;2.17;;;;;;;;;;4389605;32;20097;-69
2022/09/02 17:51:36;;;;;;;5.85;2.70;;;;;;;;;;4391014;32;20084;-68
2022/09/02 17:54:02;;;;;;;3.87;2.50;;;;;;;;;;4389477;32;20093;-69
2022/09/02 17:56:52;;;;;;;6.07;2.55;;;;;;;;;;4389707;32;20162;-69
2022/09/02 17:59:27;;;;;;;5.05;2.58;;;;;;;;;;4389766;32;20158;-68
2022/09/02 18:02:12;;;;;;;5.87;2.70;;;;;;;;;;4377194;32;20093;-69
2022/09/02 18:05:01;;;;;;;3.58;2.45;;;;;;;;;;4390175;32;20070;-68
2022/09/02 18:08:07;;;;;;;3.97;2.40;;;;;;;;;;4394186;32;20082;-69
2022/09/02 18:10:36;;;;;;;5.70;2.90;;;;;;;;;;4393496;32;20512;-70
2022/09/02 18:13:06;;;;;;;12.93;2.12;;;;;;;;;;4396987;32;20089;-70
2022/09/02 18:15:43;;;;;;;3.55;2.30;;;;;;;;;;4393198;32;20078;-69
2022/09/02 18:18:10;;;;;;;6.70;2.83;;;;;;;;;;4393829;32;20135;-68
2022/09/02 18:20:41;;;;;;;4.57;2.35;;;;;;;;;;4392552;32;20170;-69
2022/09/02 18:23:17;;;;;;;2.70;1.92;;;;;;;;;;4392349;32;20491;-70
2022/09/02 18:26:19;;;;;;;4.43;2.40;;;;;;;;;;4392346;32;20084;-69
2022/09/02 18:28:51;;;;;;;5.35;2.80;;;;;;;;;;4392371;32;20092;-68
2022/09/02 18:31:40;;;;;;;4.18;2.40;;;;;;;;;;4392192;32;20149;-68
2022/09/02 18:34:16;;;;;;;3.95;1.85;;;;;;;;;;4393738;32;20077;-69
2022/09/02 18:37:05;;;;;;;3.92;2.03;;;;;;;;;;4392385;32;20069;-68
2022/09/02 18:39:56;;;;;;;2.28;1.70;;;;;;;;;;4392203;32;20093;-68
2022/09/02 18:42:44;;;;;;;3.85;1.45;;;;;;;;;;4393672;32;20089;-68
2022/09/02 18:45:23;;;;;;;4.37;1.73;;;;;;;;;;4392056;32;20078;-68
2022/09/02 18:48:00;;;;;;;4.40;1.85;;;;;;;;;;4379483;32;20146;-70
2022/09/02 18:50:31;;;;;;;3.50;1.67;;;;;;;;;;4391820;32;20101;-68
2022/09/02 18:52:59;;;;;;;2.85;2.00;;;;;;;;;;4392337;32;20085;-68
2022/09/02 18:55:52;;;;;;;3.97;1.60;;;;;;;;;;4391972;32;20095;-69
2022/09/02 18:58:37;;;;;;;5.60;1.83;;;;;;;;;;4389857;32;20177;-68
2022/09/02 19:01:24;;;;;;;3.83;1.98;;;;;;;;;;4393661;32;20074;-70
2022/09/02 19:03:51;;;;;;;3.22;1.60;;;;;;;;;;4393198;32;20191;-69
2022/09/02 19:06:24;;;;;;;3.15;1.80;;;;;;;;;;4391759;32;20108;-68
2022/09/02 19:09:11;;;;;;;3.90;1.87;;;;;;;;;;4391959;32;20071;-68
2022/09/02 19:11:38;;;;;;;2.90;1.87;;;;;;;;;;4393105;32;20080;-68
2022/09/02 19:14:15;;;;;;;2.65;1.77;;;;;;;;;;4391517;32;20133;-69
2022/09/02 19:16:42;;;;;;;4.75;2.22;;;;;;;;;;4390994;32;20164;-69
2022/09/02 19:19:09;;;;;;;5.43;1.98;;;;;;;;;;4391057;32;20517;-69
2022/09/02 19:21:58;;;;;;;2.20;1.67;;;;;;;;;;4391404;32;20089;-69
2022/09/02 19:24:31;;;;;;;3.67;1.83;;;;;;;;;;4392689;32;20077;-69
2022/09/02 19:27:07;;;;;;;3.25;2.03;;;;;;;;;;4391395;32;20074;-68
2022/09/02 19:29:36;;;;;;;2.08;1.60;;;;;;;;;;4392988;32;20093;-68
2022/09/02 19:32:03;;;;;;;4.05;1.83;;;;;;;;;;4392701;32;20092;-69
2022/09/02 19:34:34;;;;;;;5.82;1.87;;;;;;;;;;4391663;32;20097;-69
2022/09/02 19:37:03;;;;;;;2.75;1.48;;;;;;;;;;4391459;32;20086;-69
2022/09/02 19:39:33;;;;;;;2.83;1.85;;;;;;;;;;4391916;32;20092;-69
2022/09/02 19:42:00;;;;;;;4.22;1.80;;;;;;;;;;4392807;32;20088;-69
2022/09/02 19:44:27;;;;;;;4.93;2.37;;;;;;;;;;4392481;32;20097;-68
2022/09/02 19:46:54;;;;;;;3.55;1.80;;;;;;;;;;4391512;32;20091;-68
2022/09/02 19:49:21;;;;;;;2.33;1.87;;;;;;;;;;4378684;32;20082;-69
2022/09/02 19:51:48;;;;;;;3.10;1.45;;;;;;;;;;4391439;32;20089;-69
2022/09/02 19:54:17;;;;;;;1.85;1.70;;;;;;;;;;4391058;32;20076;-68
2022/09/02 19:56:43;;;;;;;2.50;1.90;;;;;;;;;;4391144;32;20080;-69
2022/09/02 19:59:11;;;;;;;2.70;1.87;;;;;;;;;;4390828;32;20081;-68
2022/09/02 20:01:38;;;;;;;3.47;2.20;;;;;;;;;;4390819;32;20085;-69
2022/09/02 20:04:05;;;;;;;2.75;2.03;;;;;;;;;;4390745;32;20058;-68
2022/09/02 20:06:32;;;;;;;3.83;1.90;;;;;;;;;;4392320;32;20543;-68
2022/09/02 20:08:58;;;;;;;5.78;1.67;;;;;;;;;;4378332;32;20089;-68
2022/09/02 20:11:25;;;;;;;4.80;1.80;;;;;;;;;;4378443;32;20093;-69
2022/09/02 20:13:51;;;;;;;2.20;1.73;;;;;;;;;;4378429;32;20076;-69
2022/09/02 20:16:21;;;;;;;4.53;1.70;;;;;;;;;;4390819;32;20089;-69
2022/09/02 20:18:48;;;;;;;3.92;1.90;;;;;;;;;;4390941;32;20090;-69
2022/09/02 20:21:30;;;;;;;3.37;1.73;;;;;;;;;;4390685;32;20606;-68
2022/09/02 20:24:07;;;;;;;3.85;2.25;;;;;;;;;;4378106;32;20093;-69
2022/09/02 20:27:05;;;;;;;3.58;2.50;;;;;;;;;;4390765;32;20072;-68
2022/09/02 20:30:06;;;;;;;4.43;2.72;;;;;;;;;;4390359;32;20088;-68
2022/09/02 20:32:47;;;;;;;4.65;2.95;;;;;;;;;;4375843;32;20113;-69
2022/09/02 20:35:26;;;;;;;12.63;4.30;;;;;;;;;;4392000;32;20115;-68
2022/09/02 20:38:07;;;;;;;9.15;4.10;;;;;;;;;;4390512;32;20580;-69
2022/09/02 20:40:50;;;;;;;12.55;6.40;;;;;;;;;;4391653;32;20077;-69
2022/09/02 20:43:32;;;;;;;12.88;7.00;;;;;;;;;;4390873;32;20161;-69
2022/09/02 20:46:09;;;;;;;12.00;7.28;;;;;;;;;;4391918;32;20081;-68
2022/09/02 20:48:53;;;;;;;15.07;8.30;;;;;;;;;;4391602;32;20070;-69
2022/09/02 20:51:29;;;;;;;15.32;8.95;;;;;;;;;;4390654;32;20116;-69
2022/09/02 20:54:23;;;;;;;14.68;7.50;;;;;;;;;;4391351;32;20510;-69
2022/09/02 20:57:16;;;;;;;12.50;7.03;;;;;;;;;;4395269;32;20080;-69
2022/09/02 20:59:49;;;;;;;11.70;6.12;;;;;;;;;;4390122;32;20207;-68
2022/09/02 21:02:19;;;;;;;12.77;8.10;;;;;;;;;;4389979;32;20076;-69
2022/09/02 21:04:51;;;;;;;18.70;10.20;;;;;;;;;;4390369;32;20160;-68
2022/09/02 21:07:49;;;;;;;18.95;9.32;;;;;;;;;;4390123;32;20151;-69